sensor_id;sensor_type;location;lat;lon;timestamp;P1;durP1;ratioP1;P2;durP2;ratioP2
37303;SDS011;23188;51.188;16.374;2024-02-26T00:01:44;69.10;;;41.10;;
37303;SDS011;23188;51.188;16.374;2024-02-26T00:05:45;62.90;;;40.80;;
37303;SDS011;23188;51.188;16.374;2024-02-26T00:09:47;57.70;;;37.10;;
37303;SDS011;23188;51.188;16.374;2024-02-26T00:13:49;49.10;;;32.60;;
37303;SDS011;23188;51.188;16.374;2024-02-26T00:17:51;45.50;;;28.00;;
37303;SDS011;23188;51.188;16.374;2024-02-26T00:21:52;46.60;;;30.00;;
37303;SDS011;23188;51.188;16.374;2024-02-26T00:25:56;47.60;;;28.40;;
37303;SDS011;23188;51.188;16.374;2024-02-26T00:29:58;48.00;;;28.40;;
37303;SDS011;23188;51.188;16.374;2024-02-26T00:34:00;43.50;;;29.80;;
37303;SDS011;23188;51.188;16.374;2024-02-26T00:38:02;50.10;;;30.50;;
37303;SDS011;23188;51.188;16.374;2024-02-26T00:42:04;52.60;;;36.30;;
37303;SDS011;23188;51.188;16.374;2024-02-26T00:46:06;45.90;;;29.30;;
37303;SDS011;23188;51.188;16.374;2024-02-26T00:50:08;50.20;;;30.60;;
37303;SDS011;23188;51.188;16.374;2024-02-26T00:54:10;47.00;;;29.30;;
37303;SDS011;23188;51.188;16.374;2024-02-26T00:58:12;54.30;;;31.10;;
37303;SDS011;23188;51.188;16.374;2024-02-26T01:02:14;40.80;;;26.70;;
37303;SDS011;23188;51.188;16.374;2024-02-26T01:06:15;45.70;;;25.50;;
37303;SDS011;23188;51.188;16.374;2024-02-26T01:10:17;39.50;;;24.70;;
37303;SDS011;23188;51.188;16.374;2024-02-26T01:14:19;44.80;;;28.00;;
37303;SDS011;23188;51.188;16.374;2024-02-26T01:18:41;37.60;;;24.50;;
37303;SDS011;23188;51.188;16.374;2024-02-26T01:22:43;45.90;;;25.80;;
37303;SDS011;23188;51.188;16.374;2024-02-26T01:26:45;45.00;;;26.10;;
37303;SDS011;23188;51.188;16.374;2024-02-26T01:30:48;40.20;;;29.20;;
37303;SDS011;23188;51.188;16.374;2024-02-26T01:34:49;52.00;;;32.50;;
37303;SDS011;23188;51.188;16.374;2024-02-26T01:38:51;43.90;;;31.20;;
37303;SDS011;23188;51.188;16.374;2024-02-26T01:42:53;61.30;;;36.00;;
37303;SDS011;23188;51.188;16.374;2024-02-26T01:46:55;59.00;;;39.00;;
37303;SDS011;23188;51.188;16.374;2024-02-26T01:50:57;51.30;;;28.90;;
37303;SDS011;23188;51.188;16.374;2024-02-26T01:54:58;52.80;;;29.10;;
37303;SDS011;23188;51.188;16.374;2024-02-26T01:59:02;50.70;;;31.30;;
37303;SDS011;23188;51.188;16.374;2024-02-26T02:03:06;51.10;;;30.20;;
37303;SDS011;23188;51.188;16.374;2024-02-26T02:07:08;56.00;;;37.20;;
37303;SDS011;23188;51.188;16.374;2024-02-26T02:11:10;65.70;;;41.30;;
37303;SDS011;23188;51.188;16.374;2024-02-26T02:15:12;67.90;;;38.60;;
37303;SDS011;23188;51.188;16.374;2024-02-26T02:19:14;56.70;;;39.10;;
37303;SDS011;23188;51.188;16.374;2024-02-26T02:23:16;64.40;;;40.80;;
37303;SDS011;23188;51.188;16.374;2024-02-26T02:27:18;62.40;;;41.50;;
37303;SDS011;23188;51.188;16.374;2024-02-26T02:31:22;60.00;;;38.90;;
37303;SDS011;23188;51.188;16.374;2024-02-26T02:35:24;64.20;;;38.90;;
37303;SDS011;23188;51.188;16.374;2024-02-26T02:39:26;55.10;;;36.20;;
37303;SDS011;23188;51.188;16.374;2024-02-26T02:43:28;64.80;;;36.50;;
37303;SDS011;23188;51.188;16.374;2024-02-26T02:47:30;57.30;;;37.30;;
37303;SDS011;23188;51.188;16.374;2024-02-26T02:51:31;55.40;;;33.90;;
37303;SDS011;23188;51.188;16.374;2024-02-26T02:55:33;56.90;;;35.50;;
37303;SDS011;23188;51.188;16.374;2024-02-26T02:59:35;70.10;;;36.00;;
37303;SDS011;23188;51.188;16.374;2024-02-26T03:03:38;53.60;;;35.10;;
37303;SDS011;23188;51.188;16.374;2024-02-26T03:07:39;60.60;;;37.80;;
37303;SDS011;23188;51.188;16.374;2024-02-26T03:11:41;56.20;;;38.70;;
37303;SDS011;23188;51.188;16.374;2024-02-26T03:15:43;57.70;;;38.90;;
37303;SDS011;23188;51.188;16.374;2024-02-26T03:19:45;61.40;;;39.70;;
37303;SDS011;23188;51.188;16.374;2024-02-26T03:23:48;63.90;;;39.70;;
37303;SDS011;23188;51.188;16.374;2024-02-26T03:27:50;84.00;;;45.50;;
37303;SDS011;23188;51.188;16.374;2024-02-26T03:31:51;71.40;;;42.90;;
37303;SDS011;23188;51.188;16.374;2024-02-26T03:35:53;72.40;;;44.90;;
37303;SDS011;23188;51.188;16.374;2024-02-26T03:39:55;81.80;;;45.30;;
37303;SDS011;23188;51.188;16.374;2024-02-26T03:43:58;74.00;;;44.80;;
37303;SDS011;23188;51.188;16.374;2024-02-26T03:48:00;64.00;;;41.10;;
37303;SDS011;23188;51.188;16.374;2024-02-26T03:52:02;72.80;;;41.80;;
37303;SDS011;23188;51.188;16.374;2024-02-26T03:56:04;83.50;;;47.40;;
37303;SDS011;23188;51.188;16.374;2024-02-26T04:00:06;60.60;;;39.40;;
37303;SDS011;23188;51.188;16.374;2024-02-26T04:04:09;68.10;;;44.20;;
37303;SDS011;23188;51.188;16.374;2024-02-26T04:08:10;60.80;;;39.10;;
37303;SDS011;23188;51.188;16.374;2024-02-26T04:12:12;71.30;;;37.90;;
37303;SDS011;23188;51.188;16.374;2024-02-26T04:16:14;64.10;;;37.90;;
37303;SDS011;23188;51.188;16.374;2024-02-26T04:20:16;65.60;;;37.10;;
37303;SDS011;23188;51.188;16.374;2024-02-26T04:24:18;64.00;;;39.50;;
37303;SDS011;23188;51.188;16.374;2024-02-26T04:28:20;62.60;;;35.30;;
37303;SDS011;23188;51.188;16.374;2024-02-26T04:32:22;52.20;;;31.80;;
37303;SDS011;23188;51.188;16.374;2024-02-26T04:36:24;54.20;;;34.10;;
37303;SDS011;23188;51.188;16.374;2024-02-26T04:40:27;54.00;;;35.50;;
37303;SDS011;23188;51.188;16.374;2024-02-26T04:44:29;54.80;;;35.80;;
37303;SDS011;23188;51.188;16.374;2024-02-26T04:48:31;63.60;;;34.10;;
37303;SDS011;23188;51.188;16.374;2024-02-26T04:52:33;58.10;;;35.10;;
37303;SDS011;23188;51.188;16.374;2024-02-26T04:56:35;54.60;;;34.00;;
37303;SDS011;23188;51.188;16.374;2024-02-26T05:00:36;49.70;;;35.10;;
37303;SDS011;23188;51.188;16.374;2024-02-26T05:04:38;49.00;;;28.90;;
37303;SDS011;23188;51.188;16.374;2024-02-26T05:08:41;56.10;;;35.60;;
37303;SDS011;23188;51.188;16.374;2024-02-26T05:12:46;60.00;;;37.10;;
37303;SDS011;23188;51.188;16.374;2024-02-26T05:16:47;61.40;;;36.00;;
37303;SDS011;23188;51.188;16.374;2024-02-26T05:20:49;62.50;;;33.60;;
37303;SDS011;23188;51.188;16.374;2024-02-26T05:24:51;67.50;;;39.40;;
37303;SDS011;23188;51.188;16.374;2024-02-26T05:28:53;60.10;;;35.40;;
37303;SDS011;23188;51.188;16.374;2024-02-26T05:33:00;60.10;;;36.00;;
37303;SDS011;23188;51.188;16.374;2024-02-26T05:37:02;57.00;;;37.90;;
37303;SDS011;23188;51.188;16.374;2024-02-26T05:41:04;57.80;;;36.40;;
37303;SDS011;23188;51.188;16.374;2024-02-26T05:45:07;64.20;;;40.20;;
37303;SDS011;23188;51.188;16.374;2024-02-26T05:49:09;63.30;;;41.20;;
37303;SDS011;23188;51.188;16.374;2024-02-26T05:53:11;58.20;;;39.70;;
37303;SDS011;23188;51.188;16.374;2024-02-26T05:57:13;60.40;;;36.80;;
37303;SDS011;23188;51.188;16.374;2024-02-26T06:01:15;61.30;;;39.40;;
37303;SDS011;23188;51.188;16.374;2024-02-26T06:05:20;60.20;;;37.10;;
37303;SDS011;23188;51.188;16.374;2024-02-26T06:09:22;54.40;;;35.10;;
37303;SDS011;23188;51.188;16.374;2024-02-26T06:13:24;56.80;;;34.90;;
37303;SDS011;23188;51.188;16.374;2024-02-26T06:17:26;59.60;;;37.50;;
37303;SDS011;23188;51.188;16.374;2024-02-26T06:21:29;59.70;;;36.10;;
37303;SDS011;23188;51.188;16.374;2024-02-26T06:25:31;45.70;;;31.50;;
37303;SDS011;23188;51.188;16.374;2024-02-26T06:29:32;49.80;;;34.10;;
37303;SDS011;23188;51.188;16.374;2024-02-26T06:33:34;68.20;;;47.90;;
37303;SDS011;23188;51.188;16.374;2024-02-26T06:37:36;53.10;;;37.30;;
37303;SDS011;23188;51.188;16.374;2024-02-26T06:41:38;53.90;;;37.00;;
37303;SDS011;23188;51.188;16.374;2024-02-26T06:45:40;52.10;;;36.50;;
37303;SDS011;23188;51.188;16.374;2024-02-26T06:49:42;76.80;;;53.70;;
37303;SDS011;23188;51.188;16.374;2024-02-26T06:53:45;67.80;;;46.60;;
37303;SDS011;23188;51.188;16.374;2024-02-26T06:57:47;80.30;;;60.90;;
37303;SDS011;23188;51.188;16.374;2024-02-26T07:01:49;71.20;;;57.90;;
37303;SDS011;23188;51.188;16.374;2024-02-26T07:05:51;55.50;;;39.20;;
37303;SDS011;23188;51.188;16.374;2024-02-26T07:09:54;47.30;;;34.90;;
37303;SDS011;23188;51.188;16.374;2024-02-26T07:13:57;55.00;;;37.20;;
37303;SDS011;23188;51.188;16.374;2024-02-26T07:17:59;48.10;;;34.90;;
37303;SDS011;23188;51.188;16.374;2024-02-26T07:22:04;42.10;;;28.20;;
37303;SDS011;23188;51.188;16.374;2024-02-26T07:26:07;54.90;;;34.60;;
37303;SDS011;23188;51.188;16.374;2024-02-26T07:30:09;44.50;;;31.40;;
37303;SDS011;23188;51.188;16.374;2024-02-26T07:34:12;54.70;;;36.00;;
37303;SDS011;23188;51.188;16.374;2024-02-26T07:38:14;49.60;;;35.80;;
37303;SDS011;23188;51.188;16.374;2024-02-26T07:42:32;53.00;;;39.50;;
37303;SDS011;23188;51.188;16.374;2024-02-26T07:46:34;44.40;;;33.20;;
37303;SDS011;23188;51.188;16.374;2024-02-26T07:50:36;41.60;;;30.10;;
37303;SDS011;23188;51.188;16.374;2024-02-26T07:54:38;50.40;;;34.70;;
37303;SDS011;23188;51.188;16.374;2024-02-26T07:58:40;49.90;;;33.30;;
37303;SDS011;23188;51.188;16.374;2024-02-26T08:02:42;53.70;;;35.20;;
37303;SDS011;23188;51.188;16.374;2024-02-26T08:06:45;46.70;;;27.00;;
37303;SDS011;23188;51.188;16.374;2024-02-26T08:10:47;46.40;;;31.20;;
37303;SDS011;23188;51.188;16.374;2024-02-26T08:14:48;38.50;;;26.00;;
37303;SDS011;23188;51.188;16.374;2024-02-26T08:18:50;46.90;;;31.40;;
37303;SDS011;23188;51.188;16.374;2024-02-26T08:22:52;40.20;;;26.70;;
37303;SDS011;23188;51.188;16.374;2024-02-26T08:26:54;43.10;;;29.80;;
37303;SDS011;23188;51.188;16.374;2024-02-26T08:30:56;39.80;;;28.50;;
37303;SDS011;23188;51.188;16.374;2024-02-26T08:34:58;46.10;;;26.20;;
37303;SDS011;23188;51.188;16.374;2024-02-26T08:39:00;45.10;;;31.00;;
37303;SDS011;23188;51.188;16.374;2024-02-26T08:43:02;45.60;;;27.70;;
37303;SDS011;23188;51.188;16.374;2024-02-26T08:47:04;42.90;;;28.50;;
37303;SDS011;23188;51.188;16.374;2024-02-26T08:51:06;45.40;;;31.00;;
37303;SDS011;23188;51.188;16.374;2024-02-26T08:55:08;33.20;;;24.00;;
37303;SDS011;23188;51.188;16.374;2024-02-26T08:59:10;41.30;;;26.10;;
37303;SDS011;23188;51.188;16.374;2024-02-26T09:03:12;39.80;;;26.80;;
37303;SDS011;23188;51.188;16.374;2024-02-26T09:07:14;38.10;;;27.10;;
37303;SDS011;23188;51.188;16.374;2024-02-26T09:11:16;34.20;;;25.80;;
37303;SDS011;23188;51.188;16.374;2024-02-26T09:15:18;35.90;;;26.60;;
37303;SDS011;23188;51.188;16.374;2024-02-26T09:19:20;49.60;;;28.20;;
37303;SDS011;23188;51.188;16.374;2024-02-26T09:23:21;32.50;;;23.70;;
37303;SDS011;23188;51.188;16.374;2024-02-26T09:27:23;33.70;;;25.50;;
37303;SDS011;23188;51.188;16.374;2024-02-26T09:31:25;32.00;;;24.70;;
37303;SDS011;23188;51.188;16.374;2024-02-26T09:35:27;35.60;;;25.30;;
37303;SDS011;23188;51.188;16.374;2024-02-26T09:39:29;33.20;;;23.60;;
37303;SDS011;23188;51.188;16.374;2024-02-26T09:43:34;32.30;;;22.60;;
37303;SDS011;23188;51.188;16.374;2024-02-26T09:47:41;29.00;;;21.70;;
37303;SDS011;23188;51.188;16.374;2024-02-26T09:51:43;29.50;;;17.70;;
37303;SDS011;23188;51.188;16.374;2024-02-26T09:55:45;26.40;;;17.00;;
37303;SDS011;23188;51.188;16.374;2024-02-26T09:59:47;23.70;;;16.90;;
37303;SDS011;23188;51.188;16.374;2024-02-26T10:03:55;25.70;;;18.00;;
37303;SDS011;23188;51.188;16.374;2024-02-26T10:07:58;22.40;;;15.60;;
37303;SDS011;23188;51.188;16.374;2024-02-26T10:12:03;21.60;;;17.80;;
37303;SDS011;23188;51.188;16.374;2024-02-26T10:16:06;28.00;;;18.90;;
37303;SDS011;23188;51.188;16.374;2024-02-26T10:20:15;20.90;;;15.30;;
37303;SDS011;23188;51.188;16.374;2024-02-26T10:24:19;25.00;;;15.90;;
37303;SDS011;23188;51.188;16.374;2024-02-26T10:28:21;19.40;;;15.50;;
37303;SDS011;23188;51.188;16.374;2024-02-26T10:32:23;24.50;;;15.10;;
37303;SDS011;23188;51.188;16.374;2024-02-26T10:36:25;20.00;;;16.30;;
37303;SDS011;23188;51.188;16.374;2024-02-26T10:40:39;21.40;;;15.40;;
37303;SDS011;23188;51.188;16.374;2024-02-26T10:44:41;22.40;;;16.50;;
37303;SDS011;23188;51.188;16.374;2024-02-26T10:48:50;22.30;;;16.90;;
37303;SDS011;23188;51.188;16.374;2024-02-26T10:52:54;19.00;;;14.80;;
37303;SDS011;23188;51.188;16.374;2024-02-26T10:56:56;20.00;;;14.40;;
37303;SDS011;23188;51.188;16.374;2024-02-26T11:01:00;20.20;;;14.80;;
37303;SDS011;23188;51.188;16.374;2024-02-26T11:05:02;19.20;;;14.20;;
37303;SDS011;23188;51.188;16.374;2024-02-26T11:09:05;18.30;;;13.10;;
37303;SDS011;23188;51.188;16.374;2024-02-26T11:13:09;24.90;;;18.60;;
37303;SDS011;23188;51.188;16.374;2024-02-26T11:17:15;22.60;;;14.00;;
37303;SDS011;23188;51.188;16.374;2024-02-26T11:21:20;21.20;;;13.10;;
37303;SDS011;23188;51.188;16.374;2024-02-26T11:25:39;21.20;;;14.60;;
37303;SDS011;23188;51.188;16.374;2024-02-26T11:29:42;18.50;;;13.90;;
37303;SDS011;23188;51.188;16.374;2024-02-26T11:33:49;16.60;;;12.40;;
37303;SDS011;23188;51.188;16.374;2024-02-26T11:37:51;19.30;;;15.20;;
37303;SDS011;23188;51.188;16.374;2024-02-26T11:42:04;21.30;;;14.80;;
37303;SDS011;23188;51.188;16.374;2024-02-26T11:46:24;18.50;;;12.90;;
37303;SDS011;23188;51.188;16.374;2024-02-26T11:50:36;19.10;;;12.40;;
37303;SDS011;23188;51.188;16.374;2024-02-26T11:54:49;19.30;;;12.70;;
37303;SDS011;23188;51.188;16.374;2024-02-26T11:58:56;16.10;;;12.70;;
37303;SDS011;23188;51.188;16.374;2024-02-26T12:02:59;23.20;;;14.70;;
37303;SDS011;23188;51.188;16.374;2024-02-26T12:07:05;18.00;;;14.50;;
37303;SDS011;23188;51.188;16.374;2024-02-26T12:11:14;21.60;;;15.30;;
37303;SDS011;23188;51.188;16.374;2024-02-26T12:15:16;19.00;;;13.80;;
37303;SDS011;23188;51.188;16.374;2024-02-26T12:19:21;19.90;;;14.10;;
37303;SDS011;23188;51.188;16.374;2024-02-26T12:23:23;16.70;;;11.30;;
37303;SDS011;23188;51.188;16.374;2024-02-26T12:27:25;15.50;;;11.80;;
37303;SDS011;23188;51.188;16.374;2024-02-26T12:31:27;14.40;;;11.70;;
37303;SDS011;23188;51.188;16.374;2024-02-26T12:35:30;18.80;;;12.80;;
37303;SDS011;23188;51.188;16.374;2024-02-26T12:39:33;14.80;;;10.50;;
37303;SDS011;23188;51.188;16.374;2024-02-26T12:43:35;12.50;;;8.70;;
37303;SDS011;23188;51.188;16.374;2024-02-26T12:47:37;15.80;;;10.60;;
37303;SDS011;23188;51.188;16.374;2024-02-26T12:51:40;13.60;;;8.80;;
37303;SDS011;23188;51.188;16.374;2024-02-26T12:55:43;11.10;;;8.70;;
37303;SDS011;23188;51.188;16.374;2024-02-26T12:59:45;13.10;;;9.60;;
37303;SDS011;23188;51.188;16.374;2024-02-26T13:03:47;12.90;;;8.50;;
37303;SDS011;23188;51.188;16.374;2024-02-26T13:07:51;10.50;;;7.70;;
37303;SDS011;23188;51.188;16.374;2024-02-26T13:11:55;10.70;;;6.90;;
37303;SDS011;23188;51.188;16.374;2024-02-26T13:16:04;16.00;;;8.70;;
37303;SDS011;23188;51.188;16.374;2024-02-26T13:20:09;10.60;;;8.60;;
37303;SDS011;23188;51.188;16.374;2024-02-26T13:24:12;9.70;;;7.00;;
37303;SDS011;23188;51.188;16.374;2024-02-26T13:28:16;11.90;;;7.90;;
37303;SDS011;23188;51.188;16.374;2024-02-26T13:32:20;12.80;;;7.00;;
37303;SDS011;23188;51.188;16.374;2024-02-26T13:36:22;9.10;;;6.50;;
37303;SDS011;23188;51.188;16.374;2024-02-26T13:40:25;16.60;;;7.30;;
37303;SDS011;23188;51.188;16.374;2024-02-26T13:44:26;9.50;;;6.90;;
37303;SDS011;23188;51.188;16.374;2024-02-26T13:48:28;11.50;;;6.80;;
37303;SDS011;23188;51.188;16.374;2024-02-26T13:52:30;8.90;;;6.90;;
37303;SDS011;23188;51.188;16.374;2024-02-26T13:56:34;11.50;;;6.30;;
37303;SDS011;23188;51.188;16.374;2024-02-26T14:00:36;11.40;;;7.50;;
37303;SDS011;23188;51.188;16.374;2024-02-26T14:04:38;10.10;;;7.40;;
37303;SDS011;23188;51.188;16.374;2024-02-26T14:08:40;15.10;;;7.10;;
37303;SDS011;23188;51.188;16.374;2024-02-26T14:12:42;6.10;;;4.20;;
37303;SDS011;23188;51.188;16.374;2024-02-26T14:16:44;12.30;;;5.70;;
37303;SDS011;23188;51.188;16.374;2024-02-26T14:20:46;39.50;;;26.70;;
37303;SDS011;23188;51.188;16.374;2024-02-26T14:24:47;95.50;;;58.10;;
37303;SDS011;23188;51.188;16.374;2024-02-26T14:28:49;22.50;;;15.20;;
37303;SDS011;23188;51.188;16.374;2024-02-26T14:32:51;8.50;;;6.80;;
37303;SDS011;23188;51.188;16.374;2024-02-26T14:36:53;7.80;;;6.10;;
37303;SDS011;23188;51.188;16.374;2024-02-26T14:40:55;10.50;;;6.00;;
37303;SDS011;23188;51.188;16.374;2024-02-26T14:44:57;11.10;;;8.50;;
37303;SDS011;23188;51.188;16.374;2024-02-26T14:48:58;13.70;;;9.20;;
37303;SDS011;23188;51.188;16.374;2024-02-26T14:53:00;21.50;;;13.00;;
37303;SDS011;23188;51.188;16.374;2024-02-26T14:57:04;16.40;;;9.50;;
37303;SDS011;23188;51.188;16.374;2024-02-26T15:01:06;17.80;;;12.50;;
37303;SDS011;23188;51.188;16.374;2024-02-26T15:05:08;31.20;;;13.20;;
37303;SDS011;23188;51.188;16.374;2024-02-26T15:09:12;21.40;;;14.40;;
37303;SDS011;23188;51.188;16.374;2024-02-26T15:13:14;20.30;;;13.20;;
37303;SDS011;23188;51.188;16.374;2024-02-26T15:17:17;16.60;;;12.20;;
37303;SDS011;23188;51.188;16.374;2024-02-26T15:21:19;21.30;;;14.90;;
37303;SDS011;23188;51.188;16.374;2024-02-26T15:25:20;56.90;;;35.30;;
37303;SDS011;23188;51.188;16.374;2024-02-26T15:29:22;126.50;;;73.90;;
37303;SDS011;23188;51.188;16.374;2024-02-26T15:33:24;26.80;;;16.60;;
37303;SDS011;23188;51.188;16.374;2024-02-26T15:37:26;13.90;;;8.40;;
37303;SDS011;23188;51.188;16.374;2024-02-26T15:41:28;13.60;;;10.50;;
37303;SDS011;23188;51.188;16.374;2024-02-26T15:45:30;16.80;;;12.40;;
37303;SDS011;23188;51.188;16.374;2024-02-26T15:49:34;21.10;;;13.60;;
37303;SDS011;23188;51.188;16.374;2024-02-26T15:53:36;21.60;;;12.90;;
37303;SDS011;23188;51.188;16.374;2024-02-26T15:57:38;18.20;;;12.30;;
37303;SDS011;23188;51.188;16.374;2024-02-26T16:01:42;28.80;;;16.70;;
37303;SDS011;23188;51.188;16.374;2024-02-26T16:05:45;24.60;;;15.40;;
37303;SDS011;23188;51.188;16.374;2024-02-26T16:09:53;13.60;;;10.30;;
37303;SDS011;23188;51.188;16.374;2024-02-26T16:18:34;18.60;;;9.00;;
37303;SDS011;23188;51.188;16.374;2024-02-26T16:22:37;50.40;;;30.60;;
37303;SDS011;23188;51.188;16.374;2024-02-26T16:26:39;48.20;;;28.80;;
37303;SDS011;23188;51.188;16.374;2024-02-26T16:30:41;42.90;;;24.50;;
37303;SDS011;23188;51.188;16.374;2024-02-26T16:34:43;45.80;;;28.90;;
37303;SDS011;23188;51.188;16.374;2024-02-26T16:38:45;42.30;;;24.40;;
37303;SDS011;23188;51.188;16.374;2024-02-26T16:42:46;33.80;;;22.50;;
37303;SDS011;23188;51.188;16.374;2024-02-26T16:46:48;33.10;;;21.80;;
37303;SDS011;23188;51.188;16.374;2024-02-26T16:50:50;36.90;;;24.80;;
37303;SDS011;23188;51.188;16.374;2024-02-26T16:54:52;29.20;;;17.80;;
37303;SDS011;23188;51.188;16.374;2024-02-26T16:58:56;45.60;;;18.70;;
37303;SDS011;23188;51.188;16.374;2024-02-26T17:02:58;21.70;;;15.40;;
37303;SDS011;23188;51.188;16.374;2024-02-26T17:07:02;31.70;;;20.00;;
37303;SDS011;23188;51.188;16.374;2024-02-26T17:11:03;31.90;;;19.40;;
37303;SDS011;23188;51.188;16.374;2024-02-26T17:15:05;35.50;;;22.70;;
37303;SDS011;23188;51.188;16.374;2024-02-26T17:19:07;41.20;;;25.10;;
37303;SDS011;23188;51.188;16.374;2024-02-26T17:23:09;33.10;;;21.90;;
37303;SDS011;23188;51.188;16.374;2024-02-26T17:27:13;31.70;;;21.40;;
37303;SDS011;23188;51.188;16.374;2024-02-26T17:31:15;28.20;;;22.20;;
37303;SDS011;23188;51.188;16.374;2024-02-26T17:35:18;37.60;;;24.00;;
37303;SDS011;23188;51.188;16.374;2024-02-26T17:39:21;33.30;;;23.00;;
37303;SDS011;23188;51.188;16.374;2024-02-26T17:43:22;39.50;;;25.80;;
37303;SDS011;23188;51.188;16.374;2024-02-26T17:47:24;36.30;;;25.40;;
37303;SDS011;23188;51.188;16.374;2024-02-26T17:51:26;35.20;;;24.90;;
37303;SDS011;23188;51.188;16.374;2024-02-26T17:55:28;29.60;;;21.50;;
37303;SDS011;23188;51.188;16.374;2024-02-26T17:59:30;31.20;;;21.60;;
37303;SDS011;23188;51.188;16.374;2024-02-26T18:03:33;41.70;;;25.60;;
37303;SDS011;23188;51.188;16.374;2024-02-26T18:07:35;39.90;;;23.00;;
37303;SDS011;23188;51.188;16.374;2024-02-26T18:11:37;31.70;;;23.10;;
37303;SDS011;23188;51.188;16.374;2024-02-26T18:15:39;31.30;;;21.80;;
37303;SDS011;23188;51.188;16.374;2024-02-26T18:19:41;37.50;;;25.70;;
37303;SDS011;23188;51.188;16.374;2024-02-26T18:23:43;41.00;;;27.90;;
37303;SDS011;23188;51.188;16.374;2024-02-26T18:27:45;37.20;;;25.70;;
37303;SDS011;23188;51.188;16.374;2024-02-26T18:31:47;45.50;;;27.30;;
37303;SDS011;23188;51.188;16.374;2024-02-26T18:35:49;33.90;;;24.40;;
37303;SDS011;23188;51.188;16.374;2024-02-26T18:39:51;36.20;;;22.90;;
37303;SDS011;23188;51.188;16.374;2024-02-26T18:43:55;39.00;;;24.90;;
37303;SDS011;23188;51.188;16.374;2024-02-26T18:47:57;40.10;;;24.30;;
37303;SDS011;23188;51.188;16.374;2024-02-26T18:51:59;39.20;;;26.40;;
37303;SDS011;23188;51.188;16.374;2024-02-26T18:56:01;35.00;;;24.50;;
37303;SDS011;23188;51.188;16.374;2024-02-26T19:00:04;42.10;;;29.80;;
37303;SDS011;23188;51.188;16.374;2024-02-26T19:04:06;38.00;;;24.40;;
37303;SDS011;23188;51.188;16.374;2024-02-26T19:08:08;36.00;;;22.30;;
37303;SDS011;23188;51.188;16.374;2024-02-26T19:12:10;38.50;;;25.40;;
37303;SDS011;23188;51.188;16.374;2024-02-26T19:16:12;37.30;;;25.00;;
37303;SDS011;23188;51.188;16.374;2024-02-26T19:20:18;38.10;;;26.60;;
37303;SDS011;23188;51.188;16.374;2024-02-26T19:24:21;36.60;;;26.30;;
37303;SDS011;23188;51.188;16.374;2024-02-26T19:28:23;43.50;;;27.80;;
37303;SDS011;23188;51.188;16.374;2024-02-26T19:32:25;46.00;;;32.30;;
37303;SDS011;23188;51.188;16.374;2024-02-26T19:36:26;48.80;;;29.60;;
37303;SDS011;23188;51.188;16.374;2024-02-26T19:40:28;42.00;;;31.30;;
37303;SDS011;23188;51.188;16.374;2024-02-26T19:44:30;43.80;;;33.70;;
37303;SDS011;23188;51.188;16.374;2024-02-26T19:48:32;48.10;;;34.40;;
37303;SDS011;23188;51.188;16.374;2024-02-26T19:52:34;57.10;;;42.00;;
37303;SDS011;23188;51.188;16.374;2024-02-26T19:56:36;63.50;;;39.50;;
37303;SDS011;23188;51.188;16.374;2024-02-26T20:00:38;56.60;;;36.40;;
37303;SDS011;23188;51.188;16.374;2024-02-26T20:04:40;58.80;;;38.70;;
37303;SDS011;23188;51.188;16.374;2024-02-26T20:08:42;65.70;;;45.50;;
37303;SDS011;23188;51.188;16.374;2024-02-26T20:12:44;65.60;;;46.60;;
37303;SDS011;23188;51.188;16.374;2024-02-26T20:16:46;58.80;;;43.30;;
37303;SDS011;23188;51.188;16.374;2024-02-26T20:20:48;70.50;;;47.80;;
37303;SDS011;23188;51.188;16.374;2024-02-26T20:24:51;81.70;;;57.10;;
37303;SDS011;23188;51.188;16.374;2024-02-26T20:28:53;93.00;;;59.30;;
37303;SDS011;23188;51.188;16.374;2024-02-26T20:32:55;90.90;;;56.50;;
37303;SDS011;23188;51.188;16.374;2024-02-26T20:36:57;74.20;;;49.40;;
37303;SDS011;23188;51.188;16.374;2024-02-26T20:40:58;66.60;;;43.70;;
37303;SDS011;23188;51.188;16.374;2024-02-26T20:45:00;73.80;;;52.80;;
37303;SDS011;23188;51.188;16.374;2024-02-26T20:49:02;86.30;;;57.00;;
37303;SDS011;23188;51.188;16.374;2024-02-26T20:53:04;103.40;;;61.90;;
37303;SDS011;23188;51.188;16.374;2024-02-26T20:57:06;93.60;;;65.50;;
37303;SDS011;23188;51.188;16.374;2024-02-26T21:01:10;98.70;;;65.80;;
37303;SDS011;23188;51.188;16.374;2024-02-26T21:05:12;100.00;;;65.60;;
37303;SDS011;23188;51.188;16.374;2024-02-26T21:09:15;84.80;;;54.60;;
37303;SDS011;23188;51.188;16.374;2024-02-26T21:13:17;92.90;;;58.40;;
37303;SDS011;23188;51.188;16.374;2024-02-26T21:17:19;80.70;;;54.10;;
37303;SDS011;23188;51.188;16.374;2024-02-26T21:21:21;83.70;;;54.70;;
37303;SDS011;23188;51.188;16.374;2024-02-26T21:25:25;67.20;;;45.30;;
37303;SDS011;23188;51.188;16.374;2024-02-26T21:29:27;65.00;;;42.40;;
37303;SDS011;23188;51.188;16.374;2024-02-26T21:33:29;59.00;;;40.10;;
37303;SDS011;23188;51.188;16.374;2024-02-26T21:37:31;53.00;;;36.90;;
37303;SDS011;23188;51.188;16.374;2024-02-26T21:41:33;54.10;;;37.70;;
37303;SDS011;23188;51.188;16.374;2024-02-26T21:45:35;49.40;;;38.50;;
37303;SDS011;23188;51.188;16.374;2024-02-26T21:49:38;61.90;;;40.20;;
37303;SDS011;23188;51.188;16.374;2024-02-26T21:53:40;52.80;;;38.00;;
37303;SDS011;23188;51.188;16.374;2024-02-26T21:57:42;70.10;;;43.70;;
37303;SDS011;23188;51.188;16.374;2024-02-26T22:01:44;66.00;;;39.90;;
37303;SDS011;23188;51.188;16.374;2024-02-26T22:05:46;76.70;;;47.30;;
37303;SDS011;23188;51.188;16.374;2024-02-26T22:09:47;55.80;;;38.00;;
37303;SDS011;23188;51.188;16.374;2024-02-26T22:13:50;75.20;;;44.30;;
37303;SDS011;23188;51.188;16.374;2024-02-26T22:17:52;64.40;;;42.90;;
37303;SDS011;23188;51.188;16.374;2024-02-26T22:21:54;77.40;;;49.80;;
37303;SDS011;23188;51.188;16.374;2024-02-26T22:25:56;72.80;;;44.70;;
37303;SDS011;23188;51.188;16.374;2024-02-26T22:29:58;64.20;;;43.60;;
37303;SDS011;23188;51.188;16.374;2024-02-26T22:33:59;71.30;;;45.40;;
37303;SDS011;23188;51.188;16.374;2024-02-26T22:38:01;65.50;;;42.30;;
37303;SDS011;23188;51.188;16.374;2024-02-26T22:42:03;67.80;;;43.10;;
37303;SDS011;23188;51.188;16.374;2024-02-26T22:46:05;66.50;;;42.10;;
37303;SDS011;23188;51.188;16.374;2024-02-26T22:50:07;63.80;;;43.60;;
37303;SDS011;23188;51.188;16.374;2024-02-26T22:54:09;67.20;;;42.30;;
37303;SDS011;23188;51.188;16.374;2024-02-26T22:58:11;61.60;;;41.00;;
37303;SDS011;23188;51.188;16.374;2024-02-26T23:02:13;62.20;;;41.60;;
37303;SDS011;23188;51.188;16.374;2024-02-26T23:06:15;63.50;;;41.00;;
37303;SDS011;23188;51.188;16.374;2024-02-26T23:10:17;70.80;;;42.60;;
37303;SDS011;23188;51.188;16.374;2024-02-26T23:14:18;61.30;;;42.30;;
37303;SDS011;23188;51.188;16.374;2024-02-26T23:18:21;64.10;;;40.00;;
37303;SDS011;23188;51.188;16.374;2024-02-26T23:22:25;59.60;;;38.80;;
37303;SDS011;23188;51.188;16.374;2024-02-26T23:26:27;71.20;;;43.50;;